createdAt,value
2023-05-10T00:00:01.800Z,1000.98
2023-05-10T00:01:01.804Z,1000.96
2023-05-10T00:02:01.856Z,1000.92
2023-05-10T00:03:01.864Z,1000.93
2023-05-10T00:04:01.827Z,1000.90
2023-05-10T00:05:01.763Z,1000.90
2023-05-10T00:06:01.741Z,1000.93
2023-05-10T00:07:01.752Z,1000.88
2023-05-10T00:08:01.724Z,1000.92
2023-05-10T00:09:01.709Z,1000.84
2023-05-10T00:10:01.679Z,1000.86
2023-05-10T00:11:01.681Z,1000.86
2023-05-10T00:12:01.676Z,1000.83
2023-05-10T00:13:01.703Z,1000.92
2023-05-10T00:14:01.635Z,1000.94
2023-05-10T00:15:01.649Z,1000.82
2023-05-10T00:16:01.723Z,1000.80
2023-05-10T00:17:01.672Z,1000.80
2023-05-10T00:18:01.686Z,1000.83
2023-05-10T00:19:01.593Z,1000.82
2023-05-10T00:20:01.608Z,1000.80
2023-05-10T00:21:01.568Z,1000.84
2023-05-10T00:22:01.545Z,1000.79
2023-05-10T00:23:01.548Z,1000.81
2023-05-10T00:24:01.548Z,1000.83
2023-05-10T00:25:01.511Z,1000.82
2023-05-10T00:26:01.496Z,1000.81
2023-05-10T00:27:01.502Z,1000.90
2023-05-10T00:28:01.509Z,1000.79
2023-05-10T00:29:01.505Z,1000.84
2023-05-10T00:30:01.457Z,1000.82
2023-05-10T00:31:01.445Z,1000.86
2023-05-10T00:32:01.454Z,1000.78
2023-05-10T00:33:01.461Z,1000.85
2023-05-10T00:34:01.448Z,1000.86
2023-05-10T00:35:01.413Z,1000.76
2023-05-10T00:36:01.390Z,1000.79
2023-05-10T00:37:01.383Z,1000.80
2023-05-10T00:38:01.367Z,1000.81
2023-05-10T00:39:01.380Z,1000.76
2023-05-10T00:40:01.370Z,1000.76
2023-05-10T00:41:01.346Z,1000.76
2023-05-10T00:42:01.325Z,1000.78
2023-05-10T00:43:01.308Z,1000.84
2023-05-10T00:44:01.322Z,1000.82
2023-05-10T00:45:01.312Z,1000.82
2023-05-10T00:46:01.294Z,1000.78
2023-05-10T00:47:01.268Z,1000.82
2023-05-10T00:48:01.286Z,1000.79
2023-05-10T00:49:01.242Z,1000.80
2023-05-10T00:50:01.242Z,1000.79
2023-05-10T00:51:01.257Z,1000.80
2023-05-10T00:52:01.210Z,1000.84
2023-05-10T00:53:01.202Z,1000.83
2023-05-10T00:54:01.186Z,1000.85
2023-05-10T00:55:01.200Z,1000.88
2023-05-10T00:56:01.173Z,1000.85
2023-05-10T00:57:01.167Z,1000.95
2023-05-10T00:58:01.137Z,1000.90
2023-05-10T00:59:01.172Z,1001.00
2023-05-10T01:00:01.140Z,1000.86
2023-05-10T01:01:01.142Z,1000.90
2023-05-10T01:02:01.094Z,1000.91
2023-05-10T01:03:01.166Z,1000.97
2023-05-10T01:04:01.081Z,1000.92
2023-05-10T01:05:01.081Z,1000.94
2023-05-10T01:06:01.053Z,1000.95
2023-05-10T01:07:01.049Z,1000.89
2023-05-10T01:08:01.037Z,1000.93
2023-05-10T01:09:01.035Z,1000.87
2023-05-10T01:10:01.010Z,1000.89
2023-05-10T01:11:01.024Z,1000.90
2023-05-10T01:12:01.033Z,1000.90
2023-05-10T01:13:00.991Z,1000.87
2023-05-10T01:14:00.976Z,1000.86
2023-05-10T01:15:00.970Z,1000.86
2023-05-10T01:16:01.047Z,1000.90
2023-05-10T01:17:00.951Z,1000.88
2023-05-10T01:18:00.980Z,1000.91
2023-05-10T01:19:00.910Z,1000.88
2023-05-10T01:20:00.909Z,1000.89
2023-05-10T01:21:00.884Z,1000.87
2023-05-10T01:22:00.890Z,1000.92
2023-05-10T01:23:00.861Z,1000.85
2023-05-10T01:24:00.871Z,1000.91
2023-05-10T01:25:00.851Z,1000.88
2023-05-10T01:26:00.822Z,1001.00
2023-05-10T01:27:00.821Z,1000.92
2023-05-10T01:28:00.802Z,1000.94
2023-05-10T01:29:00.794Z,1000.97
2023-05-10T01:30:14.266Z,1000.99
2023-05-10T01:31:01.816Z,1000.98
2023-05-10T01:32:00.794Z,1000.99
2023-05-10T01:33:00.819Z,1001.00
2023-05-10T01:34:00.764Z,1001.01
2023-05-10T01:35:00.754Z,1001.00
2023-05-10T01:36:00.750Z,1001.05
2023-05-10T01:37:00.707Z,1001.04
2023-05-10T01:38:00.688Z,1001.03
2023-05-10T01:39:00.687Z,1001.06
2023-05-10T01:40:00.672Z,1001.08
2023-05-10T01:41:00.687Z,1001.04
2023-05-10T01:42:00.647Z,1001.04
2023-05-10T01:43:00.648Z,1001.04
2023-05-10T01:44:00.642Z,1001.07
2023-05-10T01:45:00.638Z,1000.99
2023-05-10T01:46:00.598Z,1001.01
2023-05-10T01:47:00.768Z,1001.02
2023-05-10T01:48:00.661Z,1001.08
2023-05-10T01:49:00.611Z,1001.07
2023-05-10T01:50:00.554Z,1001.04
2023-05-10T01:51:00.547Z,1001.05
2023-05-10T01:52:00.562Z,1001.03
2023-05-10T01:53:00.562Z,1001.00
2023-05-10T01:54:00.521Z,1001.07
2023-05-10T01:55:00.528Z,1001.05
2023-05-10T01:56:00.502Z,1001.10
2023-05-10T01:57:00.472Z,1001.05
2023-05-10T01:58:00.514Z,1001.05
2023-05-10T01:59:00.451Z,1001.08
2023-05-10T02:00:00.443Z,1001.10
2023-05-10T02:01:00.490Z,1001.10
2023-05-10T02:02:00.422Z,1001.10
2023-05-10T02:03:00.481Z,1001.13
2023-05-10T02:04:00.448Z,1001.10
2023-05-10T02:05:00.378Z,1001.11
2023-05-10T02:06:00.374Z,1001.10
2023-05-10T02:07:00.358Z,1001.15
2023-05-10T02:08:00.367Z,1001.11
2023-05-10T02:09:00.358Z,1001.13
2023-05-10T02:10:00.328Z,1001.15
2023-05-10T02:11:00.313Z,1001.16
2023-05-10T02:12:00.303Z,1001.14
2023-05-10T02:13:00.347Z,1001.14
2023-05-10T02:14:00.298Z,1001.15
2023-05-10T02:15:00.288Z,1001.18
2023-05-10T02:16:00.262Z,1001.18
2023-05-10T02:17:00.402Z,1001.27
2023-05-10T02:18:00.314Z,1001.24
2023-05-10T02:19:00.245Z,1001.21
2023-05-10T02:20:00.248Z,1001.28
2023-05-10T02:21:00.205Z,1001.22
2023-05-10T02:22:00.213Z,1001.26
2023-05-10T02:23:00.176Z,1001.30
2023-05-10T02:24:00.202Z,1001.30
2023-05-10T02:25:00.177Z,1001.33
2023-05-10T02:26:00.166Z,1001.30
2023-05-10T02:27:00.135Z,1001.30
2023-05-10T02:28:00.151Z,1001.31
2023-05-10T02:29:00.170Z,1001.38
2023-05-10T02:30:00.169Z,1001.36
2023-05-10T02:31:00.106Z,1001.31
2023-05-10T02:32:00.158Z,1001.39
2023-05-10T02:33:00.236Z,1001.36
2023-05-10T02:34:00.077Z,1001.32
2023-05-10T02:35:00.061Z,1001.38
2023-05-10T02:36:00.053Z,1001.34
2023-05-10T02:37:00.036Z,1001.35
2023-05-10T02:38:00.023Z,1001.31
2023-05-10T02:39:00.019Z,1001.38
2023-05-10T02:40:00.040Z,1001.36
2023-05-10T02:40:59.988Z,1001.34
2023-05-10T02:41:59.972Z,1001.32
2023-05-10T02:42:59.980Z,1001.29
2023-05-10T02:43:59.962Z,1001.34
2023-05-10T02:44:59.934Z,1001.38
2023-05-10T02:45:59.927Z,1001.26
2023-05-10T02:46:59.916Z,1001.27
2023-05-10T02:47:59.930Z,1001.28
2023-05-10T02:48:59.890Z,1001.29
2023-05-10T02:49:59.899Z,1001.30
2023-05-10T02:50:59.881Z,1001.25
2023-05-10T02:51:59.876Z,1001.26
2023-05-10T02:52:59.847Z,1001.31
2023-05-10T02:53:59.855Z,1001.28
2023-05-10T02:54:59.841Z,1001.26
2023-05-10T02:55:59.823Z,1001.26
2023-05-10T02:56:59.797Z,1001.25
2023-05-10T02:57:59.797Z,1001.25
2023-05-10T02:58:59.794Z,1001.24
2023-05-10T02:59:59.835Z,1001.28
2023-05-10T03:00:59.802Z,1001.27
2023-05-10T03:01:59.778Z,1001.28
2023-05-10T03:02:59.830Z,1001.26
2023-05-10T03:03:59.752Z,1001.25
2023-05-10T03:04:59.756Z,1001.26
2023-05-10T03:05:59.701Z,1001.28
2023-05-10T03:07:00.236Z,1001.27
2023-05-10T03:07:59.706Z,1001.27
2023-05-10T03:08:59.663Z,1001.31
2023-05-10T03:09:59.673Z,1001.23
2023-05-10T03:10:59.643Z,1001.23
2023-05-10T03:11:59.641Z,1001.22
2023-05-10T03:12:59.652Z,1001.21
2023-05-10T03:13:59.623Z,1001.19
2023-05-10T03:14:59.617Z,1001.23
2023-05-10T03:15:59.639Z,1001.26
2023-05-10T03:16:59.591Z,1001.25
2023-05-10T03:17:59.594Z,1001.25
2023-05-10T03:18:59.558Z,1001.34
2023-05-10T03:19:59.544Z,1001.34
2023-05-10T03:20:59.559Z,1001.34
2023-05-10T03:21:59.523Z,1001.32
2023-05-10T03:22:59.530Z,1001.33
2023-05-10T03:23:59.542Z,1001.39
2023-05-10T03:24:59.515Z,1001.33
2023-05-10T03:25:59.487Z,1001.39
2023-05-10T03:26:59.522Z,1001.34
2023-05-10T03:27:59.453Z,1001.32
2023-05-10T03:28:59.444Z,1001.39
2023-05-10T03:29:59.462Z,1001.44
2023-05-10T03:30:59.454Z,1001.42
2023-05-10T03:31:59.412Z,1001.41
2023-05-10T03:32:59.430Z,1001.50
2023-05-10T03:33:59.402Z,1001.46
2023-05-10T03:34:59.414Z,1001.47
2023-05-10T03:35:59.394Z,1001.46
2023-05-10T03:36:59.365Z,1001.48
2023-05-10T03:37:59.344Z,1001.54
2023-05-10T03:38:59.339Z,1001.45
2023-05-10T03:39:59.338Z,1001.49
2023-05-10T03:40:59.308Z,1001.56
2023-05-10T03:41:59.315Z,1001.55
2023-05-10T03:42:59.300Z,1001.54
2023-05-10T03:43:59.296Z,1001.47
2023-05-10T03:44:59.264Z,1001.50
2023-05-10T03:45:59.264Z,1001.55
2023-05-10T03:46:59.317Z,1001.53
2023-05-10T03:47:59.276Z,1001.60
2023-05-10T03:48:59.222Z,1001.59
2023-05-10T03:49:59.252Z,1001.61
2023-05-10T03:50:59.222Z,1001.58
2023-05-10T03:51:59.207Z,1001.66
2023-05-10T03:52:59.204Z,1001.61
2023-05-10T03:53:59.166Z,1001.64
2023-05-10T03:54:59.153Z,1001.69
2023-05-10T03:55:59.157Z,1001.65
2023-05-10T03:56:59.130Z,1001.65
2023-05-10T03:57:59.137Z,1001.63
2023-05-10T03:58:59.108Z,1001.62
2023-05-10T03:59:59.127Z,1001.63
2023-05-10T04:00:59.104Z,1001.66
2023-05-10T04:01:59.123Z,1001.63
2023-05-10T04:02:59.148Z,1001.67
2023-05-10T04:03:59.098Z,1001.68
2023-05-10T04:04:59.066Z,1001.62
2023-05-10T04:05:59.123Z,1001.69
2023-05-10T04:06:59.021Z,1001.65
2023-05-10T04:07:59.031Z,1001.67
2023-05-10T04:08:58.995Z,1001.64
2023-05-10T04:09:59.021Z,1001.66
2023-05-10T04:10:58.972Z,1001.67
2023-05-10T04:11:59.092Z,1001.64
2023-05-10T04:12:58.997Z,1001.72
2023-05-10T04:13:58.937Z,1001.71
2023-05-10T04:14:58.959Z,1001.70
2023-05-10T04:15:58.916Z,1001.75
2023-05-10T04:16:58.958Z,1001.82
2023-05-10T04:17:59.035Z,1001.73
2023-05-10T04:18:58.917Z,1001.75
2023-05-10T04:19:58.865Z,1001.83
2023-05-10T04:20:58.889Z,1001.77
2023-05-10T04:21:58.860Z,1001.85
2023-05-10T04:22:58.839Z,1001.84
2023-05-10T04:23:58.830Z,1001.77
2023-05-10T04:24:58.853Z,1001.77
2023-05-10T04:25:58.803Z,1001.73
2023-05-10T04:26:58.794Z,1001.74
2023-05-10T04:27:58.801Z,1001.69
2023-05-10T04:28:58.776Z,1001.74
2023-05-10T04:29:58.766Z,1001.72
2023-05-10T04:30:58.754Z,1001.73
2023-05-10T04:31:58.745Z,1001.72
2023-05-10T04:32:58.806Z,1001.72
2023-05-10T04:33:58.710Z,1001.73
2023-05-10T04:34:58.731Z,1001.73
2023-05-10T04:35:58.707Z,1001.71
2023-05-10T04:36:58.674Z,1001.68
2023-05-10T04:37:58.678Z,1001.73
2023-05-10T04:38:58.697Z,1001.66
2023-05-10T04:39:58.645Z,1001.66
2023-05-10T04:40:58.631Z,1001.71
2023-05-10T04:41:58.642Z,1001.65
2023-05-10T04:42:58.656Z,1001.69
2023-05-10T04:43:58.630Z,1001.73
2023-05-10T04:44:58.582Z,1001.74
2023-05-10T04:45:58.644Z,1001.71
2023-05-10T04:46:58.576Z,1001.72
2023-05-10T04:47:58.624Z,1001.76
2023-05-10T04:48:58.548Z,1001.79
2023-05-10T04:49:58.547Z,1001.76
2023-05-10T04:50:58.517Z,1001.76
2023-05-10T04:51:58.525Z,1001.71
2023-05-10T04:52:58.514Z,1001.79
2023-05-10T04:54:06.247Z,1001.79
2023-05-10T04:54:59.488Z,1001.79
2023-05-10T04:55:58.471Z,1001.78
2023-05-10T04:56:58.467Z,1001.82
2023-05-10T04:57:58.471Z,1001.83
2023-05-10T04:58:58.429Z,1001.84
2023-05-10T04:59:58.446Z,1001.91
2023-05-10T05:00:58.431Z,1001.84
2023-05-10T05:01:58.451Z,1001.88
2023-05-10T05:02:58.470Z,1001.90
2023-05-10T05:03:58.488Z,1001.90
2023-05-10T05:04:58.374Z,1001.84
2023-05-10T05:05:58.348Z,1001.83
2023-05-10T05:06:58.338Z,1001.87
2023-05-10T05:07:58.333Z,1001.88
2023-05-10T05:08:58.345Z,1001.89
2023-05-10T05:09:58.326Z,1001.85
2023-05-10T05:10:58.305Z,1001.86
2023-05-10T05:11:58.294Z,1001.87
2023-05-10T05:12:58.288Z,1001.92
2023-05-10T05:13:58.275Z,1001.97
2023-05-10T05:14:58.249Z,1001.97
2023-05-10T05:15:58.289Z,1002.00
2023-05-10T05:16:58.222Z,1002.03
2023-05-10T05:17:58.273Z,1002.04
2023-05-10T05:18:58.225Z,1002.07
2023-05-10T05:19:58.200Z,1002.02
2023-05-10T05:20:58.191Z,1002.05
2023-05-10T05:21:58.194Z,1002.03
2023-05-10T05:22:58.157Z,1002.06
2023-05-10T05:23:58.147Z,1002.02
2023-05-10T05:24:58.159Z,1002.02
2023-05-10T05:25:58.136Z,1002.04
2023-05-10T05:26:58.127Z,1002.01
2023-05-10T05:27:58.119Z,1002.05
2023-05-10T05:28:58.112Z,1002.03
2023-05-10T05:29:58.105Z,1002.10
2023-05-10T05:30:58.086Z,1002.06
2023-05-10T05:31:58.187Z,1002.09
2023-05-10T05:32:58.106Z,1002.04
2023-05-10T05:33:58.040Z,1002.05
2023-05-10T05:34:58.023Z,1002.06
2023-05-10T05:35:58.026Z,1002.02
2023-05-10T05:36:58.009Z,1002.08
2023-05-10T05:37:57.995Z,1002.06
2023-05-10T05:38:57.996Z,1002.12
2023-05-10T05:39:57.990Z,1002.16
2023-05-10T05:40:57.974Z,1002.18
2023-05-10T05:41:57.944Z,1002.14
2023-05-10T05:42:57.962Z,1002.16
2023-05-10T05:43:57.919Z,1002.13
2023-05-10T05:44:57.909Z,1002.19
2023-05-10T05:45:57.935Z,1002.18
2023-05-10T05:46:57.921Z,1002.16
2023-05-10T05:47:57.928Z,1002.22
2023-05-10T05:48:57.865Z,1002.21
2023-05-10T05:49:57.867Z,1002.20
2023-05-10T05:50:57.835Z,1002.23
2023-05-10T05:51:57.840Z,1002.27
2023-05-10T05:52:57.821Z,1002.25
2023-05-10T05:53:57.810Z,1002.32
2023-05-10T05:54:57.818Z,1002.32
2023-05-10T05:55:57.788Z,1002.30
2023-05-10T05:56:59.834Z,1002.32
2023-05-10T05:57:57.790Z,1002.36
2023-05-10T05:58:57.752Z,1002.37
2023-05-10T05:59:57.766Z,1002.34
2023-05-10T06:00:57.745Z,1002.33
2023-05-10T06:01:57.773Z,1002.28
2023-05-10T06:02:57.841Z,1002.35
2023-05-10T06:03:57.912Z,1002.31
2023-05-10T06:04:57.693Z,1002.30
2023-05-10T06:05:57.682Z,1002.32
2023-05-10T06:06:57.676Z,1002.29
2023-05-10T06:07:57.661Z,1002.34
2023-05-10T06:08:57.641Z,1002.34
2023-05-10T06:09:57.641Z,1002.36
2023-05-10T06:10:57.639Z,1002.37
2023-05-10T06:11:57.610Z,1002.29
2023-05-10T06:12:57.712Z,1002.29
2023-05-10T06:13:57.652Z,1002.39
2023-05-10T06:14:57.579Z,1002.39
2023-05-10T06:15:57.576Z,1002.36
2023-05-10T06:16:57.664Z,1002.41
2023-05-10T06:17:57.718Z,1002.42
2023-05-10T06:18:57.527Z,1002.41
2023-05-10T06:19:57.561Z,1002.43
2023-05-10T06:20:57.516Z,1002.43
2023-05-10T06:21:57.501Z,1002.47
2023-05-10T06:22:57.515Z,1002.42
2023-05-10T06:23:57.476Z,1002.47
2023-05-10T06:24:57.468Z,1002.42
2023-05-10T06:25:57.453Z,1002.47
2023-05-10T06:26:57.455Z,1002.53
2023-05-10T06:27:57.471Z,1002.51
2023-05-10T06:28:57.432Z,1002.54
2023-05-10T06:30:09.211Z,1002.54
2023-05-10T06:30:58.406Z,1002.53
2023-05-10T06:31:57.424Z,1002.52
2023-05-10T06:32:57.572Z,1002.50
2023-05-10T06:33:57.364Z,1002.55
2023-05-10T06:34:57.348Z,1002.56
2023-05-10T06:35:57.359Z,1002.57
2023-05-10T06:36:57.328Z,1002.55
2023-05-10T06:37:57.323Z,1002.56
2023-05-10T06:38:57.316Z,1002.58
2023-05-10T06:39:57.343Z,1002.51
2023-05-10T06:40:57.304Z,1002.60
2023-05-10T06:41:57.275Z,1002.63
2023-05-10T06:42:57.267Z,1002.62
2023-05-10T06:43:57.260Z,1002.64
2023-05-10T06:44:57.244Z,1002.62
2023-05-10T06:45:57.246Z,1002.61
2023-05-10T06:46:57.220Z,1002.59
2023-05-10T06:47:57.255Z,1002.61
2023-05-10T06:48:57.200Z,1002.60
2023-05-10T06:49:57.202Z,1002.64
2023-05-10T06:50:57.172Z,1002.63
2023-05-10T06:51:57.183Z,1002.61
2023-05-10T06:52:57.144Z,1002.67
2023-05-10T06:53:57.171Z,1002.65
2023-05-10T06:54:57.142Z,1002.69
2023-05-10T06:55:57.112Z,1002.70
2023-05-10T06:56:57.106Z,1002.70
2023-05-10T06:57:57.102Z,1002.69
2023-05-10T06:58:57.135Z,1002.68
2023-05-10T06:59:57.119Z,1002.74
2023-05-10T07:00:57.135Z,1002.77
2023-05-10T07:01:57.086Z,1002.72
2023-05-10T07:02:57.061Z,1002.67
2023-05-10T07:03:57.070Z,1002.65
2023-05-10T07:04:58.004Z,1002.63
2023-05-10T07:05:57.004Z,1002.67
2023-05-10T07:06:56.991Z,1002.69
2023-05-10T07:07:56.994Z,1002.65
2023-05-10T07:08:56.985Z,1002.62
2023-05-10T07:09:57.044Z,1002.72
2023-05-10T07:10:56.956Z,1002.74
2023-05-10T07:11:56.938Z,1002.75
2023-05-10T07:12:57.029Z,1002.70
2023-05-10T07:13:56.922Z,1002.75
2023-05-10T07:14:56.919Z,1002.67
2023-05-10T07:15:56.947Z,1002.74
2023-05-10T07:16:56.910Z,1002.76
2023-05-10T07:17:56.929Z,1002.80
2023-05-10T07:18:56.858Z,1002.82
2023-05-10T07:19:56.891Z,1002.81
2023-05-10T07:20:56.872Z,1002.77
2023-05-10T07:21:56.819Z,1002.82
2023-05-10T07:22:56.812Z,1002.83
2023-05-10T07:23:56.851Z,1002.73
2023-05-10T07:24:56.792Z,1002.77
2023-05-10T07:25:56.769Z,1002.81
2023-05-10T07:26:56.814Z,1002.83
2023-05-10T07:27:56.749Z,1002.83
2023-05-10T07:28:56.773Z,1002.83
2023-05-10T07:29:56.726Z,1002.89
2023-05-10T07:30:56.757Z,1002.87
2023-05-10T07:31:58.896Z,1002.90
2023-05-10T07:32:56.767Z,1002.89
2023-05-10T07:33:56.702Z,1002.96
2023-05-10T07:34:56.687Z,1002.91
2023-05-10T07:35:56.671Z,1002.90
2023-05-10T07:36:56.680Z,1002.91
2023-05-10T07:37:56.660Z,1002.91
2023-05-10T07:38:56.625Z,1002.93
2023-05-10T07:39:56.641Z,1002.96
2023-05-10T07:40:56.634Z,1002.99
2023-05-10T07:41:56.587Z,1002.95
2023-05-10T07:42:56.599Z,1003.08
2023-05-10T07:43:56.584Z,1003.01
2023-05-10T07:44:56.558Z,1003.02
2023-05-10T07:45:56.623Z,1003.00
2023-05-10T07:46:56.540Z,1002.96
2023-05-10T07:47:56.565Z,1003.06
2023-05-10T07:48:56.552Z,1003.04
2023-05-10T07:49:56.516Z,1003.07
2023-05-10T07:50:56.494Z,1003.17
2023-05-10T07:51:56.474Z,1003.12
2023-05-10T07:52:56.462Z,1003.16
2023-05-10T07:53:56.487Z,1003.15
2023-05-10T07:54:56.445Z,1003.18
2023-05-10T07:55:56.453Z,1003.15
2023-05-10T07:56:56.447Z,1003.18
2023-05-10T07:57:56.414Z,1003.17
2023-05-10T07:58:56.403Z,1003.16
2023-05-10T07:59:56.412Z,1003.26
2023-05-10T08:00:56.377Z,1003.21
2023-05-10T08:01:56.506Z,1003.21
2023-05-10T08:02:56.442Z,1003.26
2023-05-10T08:03:56.393Z,1003.17
2023-05-10T08:04:56.371Z,1003.20
2023-05-10T08:05:56.319Z,1003.22
2023-05-10T08:06:56.310Z,1003.22
2023-05-10T08:07:56.305Z,1003.22
2023-05-10T08:08:56.290Z,1003.27
2023-05-10T08:09:56.296Z,1003.24
2023-05-10T08:10:56.288Z,1003.28
2023-05-10T08:11:56.270Z,1003.34
2023-05-10T08:12:56.245Z,1003.25
2023-05-10T08:13:56.225Z,1003.24
2023-05-10T08:14:56.222Z,1003.36
2023-05-10T08:15:56.284Z,1003.29
2023-05-10T08:16:56.211Z,1003.33
2023-05-10T08:17:56.199Z,1003.36
2023-05-10T08:18:56.304Z,1003.35
2023-05-10T08:19:56.162Z,1003.37
2023-05-10T08:20:56.171Z,1003.36
2023-05-10T08:21:56.170Z,1003.38
2023-05-10T08:22:56.149Z,1003.41
2023-05-10T08:23:56.124Z,1003.42
2023-05-10T08:24:56.109Z,1003.46
2023-05-10T08:25:56.086Z,1003.44
2023-05-10T08:26:56.094Z,1003.47
2023-05-10T08:27:56.330Z,1003.46
2023-05-10T08:28:56.066Z,1003.50
2023-05-10T08:29:56.049Z,1003.46
2023-05-10T08:30:56.062Z,1003.52
2023-05-10T08:31:56.046Z,1003.45
2023-05-10T08:32:56.062Z,1003.45
2023-05-10T08:33:56.045Z,1003.43
2023-05-10T08:34:56.010Z,1003.46
2023-05-10T08:35:56.000Z,1003.46
2023-05-10T08:36:55.973Z,1003.47
2023-05-10T08:37:55.980Z,1003.46
2023-05-10T08:38:55.968Z,1003.46
2023-05-10T08:39:55.935Z,1003.43
2023-05-10T08:40:55.935Z,1003.46
2023-05-10T08:41:55.905Z,1003.50
2023-05-10T08:42:55.900Z,1003.50
2023-05-10T08:43:55.923Z,1003.48
2023-05-10T08:44:55.872Z,1003.52
2023-05-10T08:45:55.908Z,1003.55
2023-05-10T08:46:55.979Z,1003.58
2023-05-10T08:47:55.871Z,1003.54
2023-05-10T08:48:55.856Z,1003.60
2023-05-10T08:49:55.830Z,1003.58
2023-05-10T08:50:55.818Z,1003.58
2023-05-10T08:51:55.822Z,1003.57
2023-05-10T08:52:55.783Z,1003.56
2023-05-10T08:53:55.791Z,1003.59
2023-05-10T08:54:55.805Z,1003.61
2023-05-10T08:55:55.763Z,1003.58
2023-05-10T08:56:55.749Z,1003.61
2023-05-10T08:57:55.725Z,1003.61
2023-05-10T08:58:55.755Z,1003.61
2023-05-10T08:59:55.729Z,1003.67
2023-05-10T09:00:55.781Z,1003.73
2023-05-10T09:01:55.687Z,1003.73
2023-05-10T09:02:55.727Z,1003.68
2023-05-10T09:03:55.695Z,1003.65
2023-05-10T09:04:55.710Z,1003.70
2023-05-10T09:05:55.636Z,1003.67
2023-05-10T09:06:55.659Z,1003.67
2023-05-10T09:07:55.621Z,1003.73
2023-05-10T09:08:55.617Z,1003.73
2023-05-10T09:09:55.606Z,1003.74
2023-05-10T09:10:55.604Z,1003.77
2023-05-10T09:11:55.593Z,1003.77
2023-05-10T09:12:56.577Z,1003.83
2023-05-10T09:13:55.554Z,1003.90
2023-05-10T09:14:55.539Z,1003.85
2023-05-10T09:15:55.587Z,1003.84
2023-05-10T09:16:55.551Z,1003.92
2023-05-10T09:17:55.571Z,1003.87
2023-05-10T09:18:55.679Z,1003.87
2023-05-10T09:19:55.480Z,1003.87
2023-05-10T09:20:55.478Z,1003.92
2023-05-10T09:21:55.471Z,1003.96
2023-05-10T09:22:55.460Z,1003.93
2023-05-10T09:23:55.459Z,1003.97
2023-05-10T09:24:55.432Z,1003.97
2023-05-10T09:25:55.412Z,1003.90
2023-05-10T09:26:55.404Z,1003.96
2023-05-10T09:27:55.390Z,1003.96
2023-05-10T09:28:55.389Z,1003.99
2023-05-10T09:29:55.410Z,1004.02
2023-05-10T09:30:55.399Z,1004.01
2023-05-10T09:31:55.366Z,1004.05
2023-05-10T09:32:55.366Z,1003.98
2023-05-10T09:33:55.324Z,1004.00
2023-05-10T09:34:55.324Z,1004.01
2023-05-10T09:35:55.294Z,1004.03
2023-05-10T09:36:55.288Z,1004.05
2023-05-10T09:37:55.287Z,1004.02
2023-05-10T09:38:55.265Z,1004.02
2023-05-10T09:39:55.281Z,1004.00
2023-05-10T09:40:55.282Z,1004.04
2023-05-10T09:41:55.236Z,1004.03
2023-05-10T09:42:55.225Z,1004.04
2023-05-10T09:43:55.202Z,1004.01
2023-05-10T09:44:55.203Z,1004.03
2023-05-10T09:45:55.516Z,1004.04
2023-05-10T09:46:55.185Z,1004.04
2023-05-10T09:47:55.504Z,1004.08
2023-05-10T09:48:55.169Z,1004.10
2023-05-10T09:49:55.160Z,1004.06
2023-05-10T09:50:55.159Z,1004.04
2023-05-10T09:51:55.129Z,1004.09
2023-05-10T09:52:55.122Z,1004.15
2023-05-10T09:53:55.111Z,1004.15
2023-05-10T09:54:55.090Z,1004.16
2023-05-10T09:55:55.071Z,1004.18
2023-05-10T09:56:55.085Z,1004.20
2023-05-10T09:57:55.048Z,1004.16
2023-05-10T09:58:55.045Z,1004.19
2023-05-10T09:59:55.049Z,1004.16
2023-05-10T10:00:55.027Z,1004.20
2023-05-10T10:01:55.172Z,1004.20
2023-05-10T10:02:55.230Z,1004.15
2023-05-10T10:03:54.998Z,1004.22
2023-05-10T10:04:55.015Z,1004.20
2023-05-10T10:05:54.965Z,1004.14
2023-05-10T10:06:54.977Z,1004.20
2023-05-10T10:07:54.933Z,1004.22
2023-05-10T10:08:56.725Z,1004.17
2023-05-10T10:09:54.922Z,1004.20
2023-05-10T10:10:54.927Z,1004.20
2023-05-10T10:11:54.896Z,1004.21
2023-05-10T10:12:54.921Z,1004.18
2023-05-10T10:13:54.868Z,1004.24
2023-05-10T10:14:54.856Z,1004.29
2023-05-10T10:15:54.867Z,1004.22
2023-05-10T10:17:06.720Z,1004.24
2023-05-10T10:17:55.866Z,1004.16
2023-05-10T10:18:54.892Z,1004.19
2023-05-10T10:19:54.817Z,1004.17
2023-05-10T10:20:54.788Z,1004.28
2023-05-10T10:21:54.793Z,1004.20
2023-05-10T10:22:54.787Z,1004.30
2023-05-10T10:23:54.758Z,1004.25
2023-05-10T10:24:54.746Z,1004.23
2023-05-10T10:25:54.752Z,1004.23
2023-05-10T10:26:54.722Z,1004.21
2023-05-10T10:27:54.819Z,1004.22
2023-05-10T10:28:54.709Z,1004.22
2023-05-10T10:29:54.687Z,1004.20
2023-05-10T10:30:54.712Z,1004.17
2023-05-10T10:31:54.766Z,1004.20
2023-05-10T10:32:54.687Z,1004.24
2023-05-10T10:33:54.660Z,1004.16
2023-05-10T10:34:54.641Z,1004.21
2023-05-10T10:35:54.650Z,1004.17
2023-05-10T10:36:54.600Z,1004.20
2023-05-10T10:37:54.592Z,1004.18
2023-05-10T10:38:54.604Z,1004.21
2023-05-10T10:39:54.572Z,1004.20
2023-05-10T10:40:54.567Z,1004.15
2023-05-10T10:41:54.558Z,1004.23
2023-05-10T10:42:54.558Z,1004.20
2023-05-10T10:43:54.555Z,1004.26
2023-05-10T10:44:54.521Z,1004.24
2023-05-10T10:45:54.506Z,1004.25
2023-05-10T10:46:54.537Z,1004.24
2023-05-10T10:47:54.531Z,1004.29
2023-05-10T10:48:54.484Z,1004.25
2023-05-10T10:49:54.473Z,1004.24
2023-05-10T10:50:54.456Z,1004.22
2023-05-10T10:51:54.459Z,1004.24
2023-05-10T10:52:54.468Z,1004.28
2023-05-10T10:53:54.447Z,1004.34
2023-05-10T10:54:54.427Z,1004.30
2023-05-10T10:55:54.410Z,1004.29
2023-05-10T10:56:54.394Z,1004.26
2023-05-10T10:57:54.367Z,1004.27
2023-05-10T10:58:54.389Z,1004.26
2023-05-10T10:59:54.354Z,1004.28
2023-05-10T11:00:54.364Z,1004.23
2023-05-10T11:01:54.346Z,1004.31
2023-05-10T11:02:54.372Z,1004.26
2023-05-10T11:03:54.349Z,1004.30
2023-05-10T11:04:54.305Z,1004.28
2023-05-10T11:05:54.291Z,1004.25
2023-05-10T11:06:54.260Z,1004.29
2023-05-10T11:07:54.282Z,1004.34
2023-05-10T11:08:54.238Z,1004.32
2023-05-10T11:09:54.266Z,1004.27
2023-05-10T11:10:54.225Z,1004.34
2023-05-10T11:11:54.209Z,1004.32
2023-05-10T11:12:54.219Z,1004.37
2023-05-10T11:13:54.183Z,1004.36
2023-05-10T11:14:54.207Z,1004.21
2023-05-10T11:15:54.178Z,1004.31
2023-05-10T11:16:54.277Z,1004.34
2023-05-10T11:17:54.190Z,1004.39
2023-05-10T11:18:54.153Z,1004.31
2023-05-10T11:19:54.115Z,1004.36
2023-05-10T11:20:54.120Z,1004.36
2023-05-10T11:21:54.105Z,1004.31
2023-05-10T11:22:54.076Z,1004.28
2023-05-10T11:23:54.094Z,1004.31
2023-05-10T11:24:54.063Z,1004.35
2023-05-10T11:25:54.050Z,1004.34
2023-05-10T11:26:54.048Z,1004.32
2023-05-10T11:27:54.029Z,1004.36
2023-05-10T11:28:54.012Z,1004.46
2023-05-10T11:29:54.003Z,1004.39
2023-05-10T11:30:53.996Z,1004.30
2023-05-10T11:31:54.022Z,1004.28
2023-05-10T11:32:54.081Z,1004.28
2023-05-10T11:33:53.976Z,1004.35
2023-05-10T11:34:53.965Z,1004.31
2023-05-10T11:35:53.937Z,1004.39
2023-05-10T11:36:53.931Z,1004.40
2023-05-10T11:37:53.938Z,1004.38
2023-05-10T11:38:53.901Z,1004.35
2023-05-10T11:39:53.926Z,1004.45
2023-05-10T11:40:53.892Z,1004.51
2023-05-10T11:41:53.871Z,1004.48
2023-05-10T11:42:53.868Z,1004.47
2023-05-10T11:43:53.848Z,1004.55
2023-05-10T11:44:53.851Z,1004.52
2023-05-10T11:45:53.908Z,1004.58
2023-05-10T11:46:53.817Z,1004.52
2023-05-10T11:47:53.834Z,1004.55
2023-05-10T11:48:53.810Z,1004.51
2023-05-10T11:49:53.776Z,1004.60
2023-05-10T11:50:53.806Z,1004.60
2023-05-10T11:51:53.758Z,1004.63
2023-05-10T11:52:53.783Z,1004.55
2023-05-10T11:53:53.741Z,1004.56
2023-05-10T11:54:53.715Z,1004.62
2023-05-10T11:55:53.736Z,1004.61
2023-05-10T11:56:53.697Z,1004.63
2023-05-10T11:57:53.706Z,1004.60
2023-05-10T11:58:53.689Z,1004.63
2023-05-10T11:59:53.670Z,1004.61
2023-05-10T12:00:53.646Z,1004.68
2023-05-10T12:01:53.672Z,1004.65
2023-05-10T12:02:53.726Z,1004.70
2023-05-10T12:03:53.823Z,1004.67
2023-05-10T12:04:53.676Z,1004.66